sensor_id;sensor_type;location;lat;lon;timestamp;P1;durP1;ratioP1;P2;durP2;ratioP2
80334;SDS011;69653;52.674;13.574;2023-11-18T00:01:46;8.65;;;4.70;;
80334;SDS011;69653;52.674;13.574;2023-11-18T00:04:11;7.70;;;4.57;;
80334;SDS011;69653;52.674;13.574;2023-11-18T00:06:41;10.35;;;4.88;;
80334;SDS011;69653;52.674;13.574;2023-11-18T00:09:09;10.20;;;4.68;;
80334;SDS011;69653;52.674;13.574;2023-11-18T00:11:38;8.00;;;4.63;;
80334;SDS011;69653;52.674;13.574;2023-11-18T00:14:04;8.85;;;5.80;;
80334;SDS011;69653;52.674;13.574;2023-11-18T00:16:30;6.70;;;4.15;;
80334;SDS011;69653;52.674;13.574;2023-11-18T00:18:55;8.77;;;4.57;;
80334;SDS011;69653;52.674;13.574;2023-11-18T00:21:20;8.30;;;5.17;;
80334;SDS011;69653;52.674;13.574;2023-11-18T00:23:46;10.80;;;4.78;;
80334;SDS011;69653;52.674;13.574;2023-11-18T00:26:13;8.18;;;3.70;;
80334;SDS011;69653;52.674;13.574;2023-11-18T00:28:39;7.13;;;4.15;;
80334;SDS011;69653;52.674;13.574;2023-11-18T00:31:04;6.78;;;3.70;;
80334;SDS011;69653;52.674;13.574;2023-11-18T00:33:30;7.35;;;3.88;;
80334;SDS011;69653;52.674;13.574;2023-11-18T00:35:56;7.67;;;4.00;;
80334;SDS011;69653;52.674;13.574;2023-11-18T00:38:21;8.17;;;4.30;;
80334;SDS011;69653;52.674;13.574;2023-11-18T00:40:46;7.27;;;3.90;;
80334;SDS011;69653;52.674;13.574;2023-11-18T00:43:12;7.05;;;3.80;;
80334;SDS011;69653;52.674;13.574;2023-11-18T00:45:37;7.90;;;4.23;;
80334;SDS011;69653;52.674;13.574;2023-11-18T00:48:02;7.07;;;3.80;;
80334;SDS011;69653;52.674;13.574;2023-11-18T00:50:30;7.65;;;4.47;;
80334;SDS011;69653;52.674;13.574;2023-11-18T00:52:56;9.43;;;4.88;;
80334;SDS011;69653;52.674;13.574;2023-11-18T00:55:21;7.37;;;4.50;;
80334;SDS011;69653;52.674;13.574;2023-11-18T00:57:47;9.10;;;4.47;;
80334;SDS011;69653;52.674;13.574;2023-11-18T01:00:13;7.90;;;4.53;;
80334;SDS011;69653;52.674;13.574;2023-11-18T01:02:46;7.68;;;4.20;;
80334;SDS011;69653;52.674;13.574;2023-11-18T01:05:13;8.15;;;4.30;;
80334;SDS011;69653;52.674;13.574;2023-11-18T01:07:40;9.52;;;4.35;;
80334;SDS011;69653;52.674;13.574;2023-11-18T01:10:05;7.30;;;4.10;;
80334;SDS011;69653;52.674;13.574;2023-11-18T01:12:32;8.57;;;4.57;;
80334;SDS011;69653;52.674;13.574;2023-11-18T01:14:57;8.52;;;3.95;;
80334;SDS011;69653;52.674;13.574;2023-11-18T01:17:22;8.97;;;4.37;;
80334;SDS011;69653;52.674;13.574;2023-11-18T01:19:49;8.85;;;3.95;;
80334;SDS011;69653;52.674;13.574;2023-11-18T01:22:14;7.95;;;3.85;;
80334;SDS011;69653;52.674;13.574;2023-11-18T01:24:39;7.60;;;4.33;;
80334;SDS011;69653;52.674;13.574;2023-11-18T01:27:05;8.57;;;3.83;;
80334;SDS011;69653;52.674;13.574;2023-11-18T01:29:34;9.40;;;5.05;;
80334;SDS011;69653;52.674;13.574;2023-11-18T01:32:00;8.85;;;4.28;;
80334;SDS011;69653;52.674;13.574;2023-11-18T01:34:25;7.28;;;3.92;;
80334;SDS011;69653;52.674;13.574;2023-11-18T01:36:51;8.60;;;4.75;;
80334;SDS011;69653;52.674;13.574;2023-11-18T01:39:16;8.17;;;4.00;;
80334;SDS011;69653;52.674;13.574;2023-11-18T01:41:45;7.10;;;3.53;;
80334;SDS011;69653;52.674;13.574;2023-11-18T01:44:11;7.38;;;4.07;;
80334;SDS011;69653;52.674;13.574;2023-11-18T01:46:38;6.97;;;3.63;;
80334;SDS011;69653;52.674;13.574;2023-11-18T01:49:05;7.13;;;3.80;;
80334;SDS011;69653;52.674;13.574;2023-11-18T01:51:32;6.68;;;3.72;;
80334;SDS011;69653;52.674;13.574;2023-11-18T01:54:00;8.43;;;4.00;;
80334;SDS011;69653;52.674;13.574;2023-11-18T01:56:27;8.18;;;3.90;;
80334;SDS011;69653;52.674;13.574;2023-11-18T01:58:53;9.23;;;3.95;;
80334;SDS011;69653;52.674;13.574;2023-11-18T02:01:19;8.00;;;4.40;;
80334;SDS011;69653;52.674;13.574;2023-11-18T02:03:44;7.50;;;3.75;;
80334;SDS011;69653;52.674;13.574;2023-11-18T02:06:12;7.30;;;3.53;;
80334;SDS011;69653;52.674;13.574;2023-11-18T02:08:39;6.95;;;3.97;;
80334;SDS011;69653;52.674;13.574;2023-11-18T02:11:11;6.30;;;3.40;;
80334;SDS011;69653;52.674;13.574;2023-11-18T02:13:42;8.20;;;3.92;;
80334;SDS011;69653;52.674;13.574;2023-11-18T02:16:12;7.43;;;3.80;;
80334;SDS011;69653;52.674;13.574;2023-11-18T02:18:38;6.90;;;3.45;;
80334;SDS011;69653;52.674;13.574;2023-11-18T02:21:06;6.75;;;3.83;;
80334;SDS011;69653;52.674;13.574;2023-11-18T02:23:33;7.10;;;3.42;;
80334;SDS011;69653;52.674;13.574;2023-11-18T02:25:58;7.07;;;3.90;;
80334;SDS011;69653;52.674;13.574;2023-11-18T02:28:26;6.32;;;3.33;;
80334;SDS011;69653;52.674;13.574;2023-11-18T02:30:57;7.20;;;4.00;;
80334;SDS011;69653;52.674;13.574;2023-11-18T02:36:06;5.82;;;3.13;;
80334;SDS011;69653;52.674;13.574;2023-11-18T02:38:40;6.38;;;3.50;;
80334;SDS011;69653;52.674;13.574;2023-11-18T02:41:12;6.88;;;3.42;;
80334;SDS011;69653;52.674;13.574;2023-11-18T02:43:39;7.03;;;2.97;;
80334;SDS011;69653;52.674;13.574;2023-11-18T02:46:05;8.38;;;3.40;;
80334;SDS011;69653;52.674;13.574;2023-11-18T02:48:32;7.70;;;3.08;;
80334;SDS011;69653;52.674;13.574;2023-11-18T02:50:58;6.60;;;3.13;;
80334;SDS011;69653;52.674;13.574;2023-11-18T02:53:24;7.28;;;3.10;;
80334;SDS011;69653;52.674;13.574;2023-11-18T02:55:50;6.00;;;3.00;;
80334;SDS011;69653;52.674;13.574;2023-11-18T02:58:17;6.80;;;3.47;;
80334;SDS011;69653;52.674;13.574;2023-11-18T03:00:43;6.93;;;3.08;;
80334;SDS011;69653;52.674;13.574;2023-11-18T03:03:10;6.18;;;3.35;;
80334;SDS011;69653;52.674;13.574;2023-11-18T03:05:36;8.68;;;3.85;;
80334;SDS011;69653;52.674;13.574;2023-11-18T03:08:02;5.38;;;2.88;;
80334;SDS011;69653;52.674;13.574;2023-11-18T03:10:31;6.22;;;2.72;;
80334;SDS011;69653;52.674;13.574;2023-11-18T03:12:59;6.30;;;3.42;;
80334;SDS011;69653;52.674;13.574;2023-11-18T03:15:25;6.45;;;2.70;;
80334;SDS011;69653;52.674;13.574;2023-11-18T03:17:51;8.33;;;3.37;;
80334;SDS011;69653;52.674;13.574;2023-11-18T03:20:17;6.45;;;3.67;;
80334;SDS011;69653;52.674;13.574;2023-11-18T03:22:44;7.70;;;3.20;;
80334;SDS011;69653;52.674;13.574;2023-11-18T03:25:10;8.10;;;3.80;;
80334;SDS011;69653;52.674;13.574;2023-11-18T03:27:36;6.13;;;3.28;;
80334;SDS011;69653;52.674;13.574;2023-11-18T03:30:01;7.70;;;3.30;;
80334;SDS011;69653;52.674;13.574;2023-11-18T03:32:27;7.20;;;3.42;;
80334;SDS011;69653;52.674;13.574;2023-11-18T03:34:53;8.85;;;3.38;;
80334;SDS011;69653;52.674;13.574;2023-11-18T03:37:19;8.30;;;3.22;;
80334;SDS011;69653;52.674;13.574;2023-11-18T03:39:48;5.63;;;2.78;;
80334;SDS011;69653;52.674;13.574;2023-11-18T03:42:13;7.03;;;3.13;;
80334;SDS011;69653;52.674;13.574;2023-11-18T03:44:39;5.90;;;3.20;;
80334;SDS011;69653;52.674;13.574;2023-11-18T03:47:05;6.72;;;3.38;;
80334;SDS011;69653;52.674;13.574;2023-11-18T03:49:31;6.65;;;3.10;;
80334;SDS011;69653;52.674;13.574;2023-11-18T03:51:57;6.18;;;2.92;;
80334;SDS011;69653;52.674;13.574;2023-11-18T03:54:22;6.60;;;2.97;;
80334;SDS011;69653;52.674;13.574;2023-11-18T03:56:47;5.50;;;2.73;;
80334;SDS011;69653;52.674;13.574;2023-11-18T03:59:13;8.77;;;3.40;;
80334;SDS011;69653;52.674;13.574;2023-11-18T04:01:38;6.47;;;3.30;;
80334;SDS011;69653;52.674;13.574;2023-11-18T04:04:05;7.18;;;3.05;;
80334;SDS011;69653;52.674;13.574;2023-11-18T04:06:30;7.45;;;3.40;;
80334;SDS011;69653;52.674;13.574;2023-11-18T04:08:55;6.37;;;2.53;;
80334;SDS011;69653;52.674;13.574;2023-11-18T04:11:21;5.63;;;3.03;;
80334;SDS011;69653;52.674;13.574;2023-11-18T04:13:46;5.97;;;2.60;;
80334;SDS011;69653;52.674;13.574;2023-11-18T04:16:12;7.28;;;2.70;;
80334;SDS011;69653;52.674;13.574;2023-11-18T04:18:44;6.13;;;2.65;;
80334;SDS011;69653;52.674;13.574;2023-11-18T04:21:10;5.47;;;2.28;;
80334;SDS011;69653;52.674;13.574;2023-11-18T04:23:37;5.88;;;2.70;;
80334;SDS011;69653;52.674;13.574;2023-11-18T04:26:06;5.57;;;3.40;;
80334;SDS011;69653;52.674;13.574;2023-11-18T04:28:33;4.97;;;;;
80334;SDS011;69653;52.674;13.574;2023-11-18T04:30:59;4.22;;;2.25;;
80334;SDS011;69653;52.674;13.574;2023-11-18T04:33:25;6.60;;;2.47;;
80334;SDS011;69653;52.674;13.574;2023-11-18T04:35:51;5.50;;;2.60;;
80334;SDS011;69653;52.674;13.574;2023-11-18T04:38:17;4.43;;;2.30;;
80334;SDS011;69653;52.674;13.574;2023-11-18T04:40:44;5.72;;;2.35;;
80334;SDS011;69653;52.674;13.574;2023-11-18T04:43:11;4.57;;;2.15;;
80334;SDS011;69653;52.674;13.574;2023-11-18T04:45:36;4.53;;;1.70;;
80334;SDS011;69653;52.674;13.574;2023-11-18T04:48:02;4.37;;;2.07;;
80334;SDS011;69653;52.674;13.574;2023-11-18T04:50:29;4.43;;;2.40;;
80334;SDS011;69653;52.674;13.574;2023-11-18T04:52:55;4.72;;;2.22;;
80334;SDS011;69653;52.674;13.574;2023-11-18T04:55:21;6.22;;;2.30;;
80334;SDS011;69653;52.674;13.574;2023-11-18T04:57:46;6.13;;;2.50;;
80334;SDS011;69653;52.674;13.574;2023-11-18T05:00:12;4.47;;;2.22;;
80334;SDS011;69653;52.674;13.574;2023-11-18T05:02:41;5.03;;;2.20;;
80334;SDS011;69653;52.674;13.574;2023-11-18T05:05:07;6.10;;;2.28;;
80334;SDS011;69653;52.674;13.574;2023-11-18T05:07:33;4.78;;;2.00;;
80334;SDS011;69653;52.674;13.574;2023-11-18T05:09:59;5.00;;;1.73;;
80334;SDS011;69653;52.674;13.574;2023-11-18T05:12:25;3.97;;;2.30;;
80334;SDS011;69653;52.674;13.574;2023-11-18T05:14:51;5.47;;;2.30;;
80334;SDS011;69653;52.674;13.574;2023-11-18T05:17:16;6.57;;;2.47;;
80334;SDS011;69653;52.674;13.574;2023-11-18T05:19:42;4.38;;;2.10;;
80334;SDS011;69653;52.674;13.574;2023-11-18T05:22:08;4.10;;;2.38;;
80334;SDS011;69653;52.674;13.574;2023-11-18T05:24:34;5.97;;;2.38;;
80334;SDS011;69653;52.674;13.574;2023-11-18T05:26:59;4.03;;;2.27;;
80334;SDS011;69653;52.674;13.574;2023-11-18T05:29:28;4.82;;;2.22;;
80334;SDS011;69653;52.674;13.574;2023-11-18T05:31:53;4.68;;;2.10;;
80334;SDS011;69653;52.674;13.574;2023-11-18T05:34:20;4.38;;;2.00;;
80334;SDS011;69653;52.674;13.574;2023-11-18T05:36:46;5.88;;;2.33;;
80334;SDS011;69653;52.674;13.574;2023-11-18T05:39:12;4.53;;;2.38;;
80334;SDS011;69653;52.674;13.574;2023-11-18T05:41:39;7.13;;;2.95;;
80334;SDS011;69653;52.674;13.574;2023-11-18T05:44:10;5.45;;;2.58;;
80334;SDS011;69653;52.674;13.574;2023-11-18T05:46:42;4.97;;;2.55;;
80334;SDS011;69653;52.674;13.574;2023-11-18T05:49:08;4.38;;;2.28;;
80334;SDS011;69653;52.674;13.574;2023-11-18T05:51:34;4.77;;;2.30;;
80334;SDS011;69653;52.674;13.574;2023-11-18T05:54:00;5.00;;;2.33;;
80334;SDS011;69653;52.674;13.574;2023-11-18T05:56:26;4.93;;;2.17;;
80334;SDS011;69653;52.674;13.574;2023-11-18T05:58:51;5.53;;;2.30;;
80334;SDS011;69653;52.674;13.574;2023-11-18T06:01:20;5.28;;;2.20;;
80334;SDS011;69653;52.674;13.574;2023-11-18T06:03:46;4.68;;;2.25;;
80334;SDS011;69653;52.674;13.574;2023-11-18T06:06:12;4.28;;;2.05;;
80334;SDS011;69653;52.674;13.574;2023-11-18T06:08:41;4.75;;;2.47;;
80334;SDS011;69653;52.674;13.574;2023-11-18T06:11:07;5.20;;;2.40;;
80334;SDS011;69653;52.674;13.574;2023-11-18T06:16:22;5.03;;;2.58;;
80334;SDS011;69653;52.674;13.574;2023-11-18T06:18:58;4.50;;;2.03;;
80334;SDS011;69653;52.674;13.574;2023-11-18T06:21:24;4.53;;;2.10;;
80334;SDS011;69653;52.674;13.574;2023-11-18T06:23:55;6.35;;;2.30;;
80334;SDS011;69653;52.674;13.574;2023-11-18T06:26:20;4.45;;;2.15;;
80334;SDS011;69653;52.674;13.574;2023-11-18T06:28:47;5.32;;;2.30;;
80334;SDS011;69653;52.674;13.574;2023-11-18T06:31:16;5.07;;;2.25;;
80334;SDS011;69653;52.674;13.574;2023-11-18T06:33:42;3.65;;;1.88;;
80334;SDS011;69653;52.674;13.574;2023-11-18T06:36:18;4.38;;;2.05;;
80334;SDS011;69653;52.674;13.574;2023-11-18T06:38:46;5.97;;;2.30;;
80334;SDS011;69653;52.674;13.574;2023-11-18T06:41:14;4.53;;;2.30;;
80334;SDS011;69653;52.674;13.574;2023-11-18T06:43:42;6.40;;;2.60;;
80334;SDS011;69653;52.674;13.574;2023-11-18T06:46:21;3.85;;;1.80;;
80334;SDS011;69653;52.674;13.574;2023-11-18T06:48:51;5.93;;;2.35;;
80334;SDS011;69653;52.674;13.574;2023-11-18T06:51:22;5.63;;;2.05;;
80334;SDS011;69653;52.674;13.574;2023-11-18T06:53:58;5.28;;;2.40;;
80334;SDS011;69653;52.674;13.574;2023-11-18T06:56:24;5.38;;;2.78;;
80334;SDS011;69653;52.674;13.574;2023-11-18T06:58:50;4.68;;;2.47;;
80334;SDS011;69653;52.674;13.574;2023-11-18T07:01:16;5.25;;;2.47;;
80334;SDS011;69653;52.674;13.574;2023-11-18T07:03:42;5.30;;;2.97;;
80334;SDS011;69653;52.674;13.574;2023-11-18T07:06:08;5.95;;;3.30;;
80334;SDS011;69653;52.674;13.574;2023-11-18T07:08:34;9.35;;;3.88;;
80334;SDS011;69653;52.674;13.574;2023-11-18T07:11:01;6.50;;;3.08;;
80334;SDS011;69653;52.674;13.574;2023-11-18T07:13:27;7.75;;;4.22;;
80334;SDS011;69653;52.674;13.574;2023-11-18T07:15:53;7.30;;;3.90;;
80334;SDS011;69653;52.674;13.574;2023-11-18T07:18:22;7.72;;;3.90;;
80334;SDS011;69653;52.674;13.574;2023-11-18T07:20:50;8.07;;;4.35;;
80334;SDS011;69653;52.674;13.574;2023-11-18T07:23:17;9.80;;;4.32;;
80334;SDS011;69653;52.674;13.574;2023-11-18T07:25:45;7.47;;;3.50;;
80334;SDS011;69653;52.674;13.574;2023-11-18T07:28:11;11.73;;;4.40;;
80334;SDS011;69653;52.674;13.574;2023-11-18T07:30:40;8.38;;;4.20;;
80334;SDS011;69653;52.674;13.574;2023-11-18T07:33:06;8.48;;;4.45;;
80334;SDS011;69653;52.674;13.574;2023-11-18T07:35:33;10.50;;;4.30;;
80334;SDS011;69653;52.674;13.574;2023-11-18T07:37:59;9.32;;;4.50;;
80334;SDS011;69653;52.674;13.574;2023-11-18T07:40:25;8.45;;;4.72;;
80334;SDS011;69653;52.674;13.574;2023-11-18T07:42:56;10.93;;;4.65;;
80334;SDS011;69653;52.674;13.574;2023-11-18T07:45:22;9.10;;;4.13;;
80334;SDS011;69653;52.674;13.574;2023-11-18T07:47:51;9.85;;;4.78;;
80334;SDS011;69653;52.674;13.574;2023-11-18T07:50:17;7.95;;;4.10;;
80334;SDS011;69653;52.674;13.574;2023-11-18T07:52:45;9.02;;;4.40;;
80334;SDS011;69653;52.674;13.574;2023-11-18T07:55:12;8.38;;;4.35;;
80334;SDS011;69653;52.674;13.574;2023-11-18T07:57:38;10.38;;;4.88;;
80334;SDS011;69653;52.674;13.574;2023-11-18T08:00:04;9.48;;;4.50;;
80334;SDS011;69653;52.674;13.574;2023-11-18T08:02:36;10.00;;;4.47;;
80334;SDS011;69653;52.674;13.574;2023-11-18T08:05:02;10.18;;;4.60;;
80334;SDS011;69653;52.674;13.574;2023-11-18T08:07:38;10.25;;;4.20;;
80334;SDS011;69653;52.674;13.574;2023-11-18T08:10:03;8.37;;;4.40;;
80334;SDS011;69653;52.674;13.574;2023-11-18T08:12:32;10.98;;;5.28;;
80334;SDS011;69653;52.674;13.574;2023-11-18T08:14:57;8.88;;;4.25;;
80334;SDS011;69653;52.674;13.574;2023-11-18T08:17:24;11.43;;;4.75;;
80334;SDS011;69653;52.674;13.574;2023-11-18T08:19:53;10.50;;;4.88;;
80334;SDS011;69653;52.674;13.574;2023-11-18T08:22:19;9.18;;;4.40;;
80334;SDS011;69653;52.674;13.574;2023-11-18T08:24:48;9.00;;;4.60;;
80334;SDS011;69653;52.674;13.574;2023-11-18T08:27:13;8.93;;;4.15;;
80334;SDS011;69653;52.674;13.574;2023-11-18T08:29:39;8.53;;;3.53;;
80334;SDS011;69653;52.674;13.574;2023-11-18T08:32:05;8.90;;;4.17;;
80334;SDS011;69653;52.674;13.574;2023-11-18T08:34:31;7.72;;;4.55;;
80334;SDS011;69653;52.674;13.574;2023-11-18T08:37:00;8.02;;;3.78;;
80334;SDS011;69653;52.674;13.574;2023-11-18T08:39:26;8.17;;;4.23;;
80334;SDS011;69653;52.674;13.574;2023-11-18T08:41:54;8.13;;;4.05;;
80334;SDS011;69653;52.674;13.574;2023-11-18T08:44:19;8.90;;;3.95;;
80334;SDS011;69653;52.674;13.574;2023-11-18T08:46:45;8.15;;;3.85;;
80334;SDS011;69653;52.674;13.574;2023-11-18T08:49:10;7.03;;;4.00;;
80334;SDS011;69653;52.674;13.574;2023-11-18T08:51:36;6.47;;;3.47;;
80334;SDS011;69653;52.674;13.574;2023-11-18T08:54:03;9.00;;;4.57;;
80334;SDS011;69653;52.674;13.574;2023-11-18T08:56:47;9.80;;;4.50;;
80334;SDS011;69653;52.674;13.574;2023-11-18T08:59:19;9.23;;;4.35;;
80334;SDS011;69653;52.674;13.574;2023-11-18T09:04:24;8.73;;;3.63;;
80334;SDS011;69653;52.674;13.574;2023-11-18T09:06:52;6.93;;;3.80;;
80334;SDS011;69653;52.674;13.574;2023-11-18T09:09:20;6.53;;;3.38;;
80334;SDS011;69653;52.674;13.574;2023-11-18T09:11:51;6.07;;;2.92;;
80334;SDS011;69653;52.674;13.574;2023-11-18T09:14:18;5.55;;;3.17;;
80334;SDS011;69653;52.674;13.574;2023-11-18T09:16:44;5.45;;;3.10;;
80334;SDS011;69653;52.674;13.574;2023-11-18T09:19:10;5.55;;;2.70;;
80334;SDS011;69653;52.674;13.574;2023-11-18T09:21:35;4.93;;;2.53;;
80334;SDS011;69653;52.674;13.574;2023-11-18T09:24:01;4.18;;;2.35;;
80334;SDS011;69653;52.674;13.574;2023-11-18T09:26:30;5.63;;;2.60;;
80334;SDS011;69653;52.674;13.574;2023-11-18T09:28:56;7.53;;;3.00;;
80334;SDS011;69653;52.674;13.574;2023-11-18T09:31:23;6.82;;;3.03;;
80334;SDS011;69653;52.674;13.574;2023-11-18T09:33:48;6.10;;;2.83;;
80334;SDS011;69653;52.674;13.574;2023-11-18T09:36:17;6.20;;;2.60;;
80334;SDS011;69653;52.674;13.574;2023-11-18T09:38:43;4.53;;;2.17;;
80334;SDS011;69653;52.674;13.574;2023-11-18T09:41:11;4.05;;;2.45;;
80334;SDS011;69653;52.674;13.574;2023-11-18T09:43:37;3.70;;;2.10;;
80334;SDS011;69653;52.674;13.574;2023-11-18T09:46:27;5.25;;;2.35;;
80334;SDS011;69653;52.674;13.574;2023-11-18T09:49:04;5.13;;;2.55;;
80334;SDS011;69653;52.674;13.574;2023-11-18T09:51:42;4.70;;;2.10;;
80334;SDS011;69653;52.674;13.574;2023-11-18T10:00:02;4.13;;;1.90;;
80334;SDS011;69653;52.674;13.574;2023-11-18T10:02:50;5.30;;;2.15;;
80334;SDS011;69653;52.674;13.574;2023-11-18T10:05:16;5.10;;;2.03;;
80334;SDS011;69653;52.674;13.574;2023-11-18T10:07:45;4.00;;;1.90;;
80334;SDS011;69653;52.674;13.574;2023-11-18T10:10:15;4.32;;;2.45;;
80334;SDS011;69653;52.674;13.574;2023-11-18T10:15:08;4.10;;;2.00;;
80334;SDS011;69653;52.674;13.574;2023-11-18T10:17:38;5.35;;;2.20;;
80334;SDS011;69653;52.674;13.574;2023-11-18T10:20:20;4.90;;;2.25;;
80334;SDS011;69653;52.674;13.574;2023-11-18T10:23:07;4.40;;;1.98;;
80334;SDS011;69653;52.674;13.574;2023-11-18T10:25:37;3.75;;;2.22;;
80334;SDS011;69653;52.674;13.574;2023-11-18T10:28:07;3.33;;;1.70;;
80334;SDS011;69653;52.674;13.574;2023-11-18T10:30:42;5.00;;;2.25;;
80334;SDS011;69653;52.674;13.574;2023-11-18T10:33:12;3.85;;;2.25;;
80334;SDS011;69653;52.674;13.574;2023-11-18T10:35:48;4.75;;;1.95;;
80334;SDS011;69653;52.674;13.574;2023-11-18T10:38:16;4.50;;;2.03;;
80334;SDS011;69653;52.674;13.574;2023-11-18T10:40:42;4.80;;;1.92;;
80334;SDS011;69653;52.674;13.574;2023-11-18T10:43:09;3.80;;;2.08;;
80334;SDS011;69653;52.674;13.574;2023-11-18T10:45:35;4.95;;;2.38;;
80334;SDS011;69653;52.674;13.574;2023-11-18T10:48:07;4.70;;;1.90;;
80334;SDS011;69653;52.674;13.574;2023-11-18T10:50:33;3.55;;;1.83;;
80334;SDS011;69653;52.674;13.574;2023-11-18T10:53:02;3.97;;;2.00;;
80334;SDS011;69653;52.674;13.574;2023-11-18T10:55:37;3.92;;;1.63;;
80334;SDS011;69653;52.674;13.574;2023-11-18T10:58:05;4.25;;;2.00;;
80334;SDS011;69653;52.674;13.574;2023-11-18T11:00:46;3.50;;;1.70;;
80334;SDS011;69653;52.674;13.574;2023-11-18T11:03:15;4.05;;;2.05;;
80334;SDS011;69653;52.674;13.574;2023-11-18T11:05:41;6.18;;;2.15;;
80334;SDS011;69653;52.674;13.574;2023-11-18T11:08:08;4.07;;;1.95;;
80334;SDS011;69653;52.674;13.574;2023-11-18T11:10:38;3.78;;;2.13;;
80334;SDS011;69653;52.674;13.574;2023-11-18T11:13:06;4.25;;;1.85;;
80334;SDS011;69653;52.674;13.574;2023-11-18T11:15:33;4.35;;;1.65;;
80334;SDS011;69653;52.674;13.574;2023-11-18T11:18:08;3.63;;;1.70;;
80334;SDS011;69653;52.674;13.574;2023-11-18T11:20:41;3.55;;;1.85;;
80334;SDS011;69653;52.674;13.574;2023-11-18T11:26:18;4.00;;;1.80;;
80334;SDS011;69653;52.674;13.574;2023-11-18T11:29:01;3.33;;;1.73;;
80334;SDS011;69653;52.674;13.574;2023-11-18T11:31:41;4.88;;;1.90;;
80334;SDS011;69653;52.674;13.574;2023-11-18T11:34:19;4.18;;;1.73;;
80334;SDS011;69653;52.674;13.574;2023-11-18T11:36:49;3.85;;;1.70;;
80334;SDS011;69653;52.674;13.574;2023-11-18T11:39:16;3.40;;;1.90;;
80334;SDS011;69653;52.674;13.574;2023-11-18T11:41:46;3.33;;;1.60;;
80334;SDS011;69653;52.674;13.574;2023-11-18T11:44:16;3.53;;;1.80;;
80334;SDS011;69653;52.674;13.574;2023-11-18T11:46:44;3.30;;;1.70;;
80334;SDS011;69653;52.674;13.574;2023-11-18T11:49:18;4.45;;;2.20;;
80334;SDS011;69653;52.674;13.574;2023-11-18T11:58:01;7.45;;;3.55;;
80334;SDS011;69653;52.674;13.574;2023-11-18T12:00:27;11.27;;;5.57;;
80334;SDS011;69653;52.674;13.574;2023-11-18T12:03:00;8.35;;;3.55;;
80334;SDS011;69653;52.674;13.574;2023-11-18T12:05:29;11.27;;;4.55;;
80334;SDS011;69653;52.674;13.574;2023-11-18T12:07:58;7.32;;;3.55;;
80334;SDS011;69653;52.674;13.574;2023-11-18T12:10:27;6.32;;;2.88;;
80334;SDS011;69653;52.674;13.574;2023-11-18T12:13:08;4.88;;;2.53;;
80334;SDS011;69653;52.674;13.574;2023-11-18T12:15:48;6.15;;;3.05;;
80334;SDS011;69653;52.674;13.574;2023-11-18T12:18:25;4.30;;;2.15;;
80334;SDS011;69653;52.674;13.574;2023-11-18T12:20:51;3.60;;;2.00;;
80334;SDS011;69653;52.674;13.574;2023-11-18T12:23:20;4.38;;;2.28;;
80334;SDS011;69653;52.674;13.574;2023-11-18T12:25:49;4.25;;;2.45;;
80334;SDS011;69653;52.674;13.574;2023-11-18T12:30:56;3.53;;;1.80;;
80334;SDS011;69653;52.674;13.574;2023-11-18T12:39:05;5.07;;;2.17;;
80334;SDS011;69653;52.674;13.574;2023-11-18T12:41:48;4.00;;;2.20;;
80334;SDS011;69653;52.674;13.574;2023-11-18T12:44:31;4.43;;;2.13;;
80334;SDS011;69653;52.674;13.574;2023-11-18T12:47:04;6.10;;;2.47;;
80334;SDS011;69653;52.674;13.574;2023-11-18T12:49:40;5.57;;;2.78;;
80334;SDS011;69653;52.674;13.574;2023-11-18T12:52:10;5.00;;;2.88;;
80334;SDS011;69653;52.674;13.574;2023-11-18T12:54:40;5.85;;;2.90;;
80334;SDS011;69653;52.674;13.574;2023-11-18T12:57:11;5.63;;;2.80;;
80334;SDS011;69653;52.674;13.574;2023-11-18T12:59:40;4.57;;;2.75;;
80334;SDS011;69653;52.674;13.574;2023-11-18T13:02:10;5.85;;;2.92;;
80334;SDS011;69653;52.674;13.574;2023-11-18T13:04:44;6.20;;;2.75;;
80334;SDS011;69653;52.674;13.574;2023-11-18T13:07:14;5.47;;;2.60;;
80334;SDS011;69653;52.674;13.574;2023-11-18T13:09:40;5.20;;;2.90;;
80334;SDS011;69653;52.674;13.574;2023-11-18T13:12:08;5.40;;;3.00;;
80334;SDS011;69653;52.674;13.574;2023-11-18T13:14:34;6.07;;;2.80;;
80334;SDS011;69653;52.674;13.574;2023-11-18T13:17:04;5.60;;;3.00;;
80334;SDS011;69653;52.674;13.574;2023-11-18T13:19:39;5.75;;;2.97;;
80334;SDS011;69653;52.674;13.574;2023-11-18T13:22:05;6.30;;;3.60;;
80334;SDS011;69653;52.674;13.574;2023-11-18T13:24:36;8.57;;;3.97;;
80334;SDS011;69653;52.674;13.574;2023-11-18T13:27:05;6.25;;;3.00;;
80334;SDS011;69653;52.674;13.574;2023-11-18T13:29:33;6.70;;;2.92;;
80334;SDS011;69653;52.674;13.574;2023-11-18T13:32:00;8.25;;;3.40;;
80334;SDS011;69653;52.674;13.574;2023-11-18T13:34:29;8.07;;;3.42;;
80334;SDS011;69653;52.674;13.574;2023-11-18T13:36:57;7.03;;;3.53;;
80334;SDS011;69653;52.674;13.574;2023-11-18T13:39:23;7.28;;;3.85;;
80334;SDS011;69653;52.674;13.574;2023-11-18T13:41:52;7.30;;;3.42;;
80334;SDS011;69653;52.674;13.574;2023-11-18T13:44:34;5.95;;;3.35;;
80334;SDS011;69653;52.674;13.574;2023-11-18T13:47:02;7.18;;;3.40;;
80334;SDS011;69653;52.674;13.574;2023-11-18T13:49:34;6.10;;;3.75;;
80334;SDS011;69653;52.674;13.574;2023-11-18T13:51:59;6.68;;;3.78;;
80334;SDS011;69653;52.674;13.574;2023-11-18T13:54:27;8.00;;;3.78;;
80334;SDS011;69653;52.674;13.574;2023-11-18T13:56:53;6.65;;;3.50;;
80334;SDS011;69653;52.674;13.574;2023-11-18T13:59:23;7.53;;;4.05;;
80334;SDS011;69653;52.674;13.574;2023-11-18T14:01:55;7.50;;;3.95;;
80334;SDS011;69653;52.674;13.574;2023-11-18T14:06:52;8.13;;;4.13;;
80334;SDS011;69653;52.674;13.574;2023-11-18T14:09:25;9.07;;;4.00;;
80334;SDS011;69653;52.674;13.574;2023-11-18T14:11:52;7.25;;;3.70;;
80334;SDS011;69653;52.674;13.574;2023-11-18T14:14:20;6.50;;;3.67;;
80334;SDS011;69653;52.674;13.574;2023-11-18T14:16:46;6.72;;;4.00;;
80334;SDS011;69653;52.674;13.574;2023-11-18T14:19:11;7.83;;;4.30;;
80334;SDS011;69653;52.674;13.574;2023-11-18T14:21:37;7.38;;;4.47;;
80334;SDS011;69653;52.674;13.574;2023-11-18T14:24:04;7.00;;;3.83;;
80334;SDS011;69653;52.674;13.574;2023-11-18T14:26:29;7.10;;;4.20;;
80334;SDS011;69653;52.674;13.574;2023-11-18T14:28:56;7.13;;;3.50;;
80334;SDS011;69653;52.674;13.574;2023-11-18T14:31:22;9.18;;;4.72;;
80334;SDS011;69653;52.674;13.574;2023-11-18T14:33:47;6.33;;;3.87;;
80334;SDS011;69653;52.674;13.574;2023-11-18T14:36:13;7.40;;;4.68;;
80334;SDS011;69653;52.674;13.574;2023-11-18T14:38:39;8.10;;;4.45;;
80334;SDS011;69653;52.674;13.574;2023-11-18T14:41:05;9.15;;;4.78;;
80334;SDS011;69653;52.674;13.574;2023-11-18T14:43:32;8.85;;;3.85;;
80334;SDS011;69653;52.674;13.574;2023-11-18T14:45:58;9.10;;;5.28;;
80334;SDS011;69653;52.674;13.574;2023-11-18T14:48:24;10.10;;;4.82;;
80334;SDS011;69653;52.674;13.574;2023-11-18T14:50:49;8.50;;;4.13;;
80334;SDS011;69653;52.674;13.574;2023-11-18T14:53:14;11.37;;;5.77;;
80334;SDS011;69653;52.674;13.574;2023-11-18T14:55:40;12.63;;;6.77;;
80334;SDS011;69653;52.674;13.574;2023-11-18T14:58:05;13.48;;;6.70;;
80334;SDS011;69653;52.674;13.574;2023-11-18T15:00:32;10.43;;;6.05;;
80334;SDS011;69653;52.674;13.574;2023-11-18T15:02:57;11.05;;;5.85;;
80334;SDS011;69653;52.674;13.574;2023-11-18T15:05:23;11.50;;;6.38;;
80334;SDS011;69653;52.674;13.574;2023-11-18T15:07:50;11.45;;;6.03;;
80334;SDS011;69653;52.674;13.574;2023-11-18T15:10:16;9.43;;;5.47;;
80334;SDS011;69653;52.674;13.574;2023-11-18T15:12:49;11.55;;;5.38;;
80334;SDS011;69653;52.674;13.574;2023-11-18T15:15:22;9.55;;;5.28;;